Terminal Aerodrome Forecast
Issued by NWS

Home | Current Version | Previous Version | Text Only | Print | Product List | Glossary On
Versions: 1 2 3 4 5 6 7 8 9 10 11 12 13 14
000
FTUS46 KHNX 021720
TAFMER
TAF
KMER 021720Z 0218/0318 25007KT P6SM SCT080 BKN110
      TEMPO 0218/0220 -SHRA SCT050 BKN080
     FM022200 32009KT P6SM SCT100 BKN150=

USA.gov is the U.S. government's official web portal to all federal, state and local government web resources and services.